Time;durP1;ratioP1;P1;durP2;ratioP2;P2;SDS_P1;SDS_P2;PMS_P1;PMS_P2;Temp;Humidity;BMP_temperature;BMP_pressure;BME280_temperature;BME280_humidity;BME280_pressure;Samples;Min_cycle;Max_cycle;Signal;HPM_P1;HPM_P2
2019/04/12 00:00:00;;;;;;;32.3;22.6;;;;;;;8.95;46.64941;962.2864;;;;
2019/04/12 00:02:30;;;;;;;29.3;22;;;;;;;8.97;46.27637;962.2711;;;;
2019/04/12 00:04:51;;;;;;;29.9;21.5;;;;;;;8.91;46.49219;962.3109;;;;
2019/04/12 00:07:16;;;;;;;27.9;21.8;;;;;;;8.57;46.75879;962.3328;;;;
2019/04/12 00:09:41;;;;;;;28.6;22;;;;;;;8.41;47.25488;962.3593;;;;
2019/04/12 00:12:06;;;;;;;30.2;21.4;;;;;;;8.57;47.13184;962.3328;;;;
2019/04/12 00:14:31;;;;;;;29.1;20.8;;;;;;;8.68;46.33984;962.3322;;;;
2019/04/12 00:16:57;;;;;;;28.4;20.7;;;;;;;8.36;47.52832;962.3381;;;;
2019/04/12 00:19:22;;;;;;;30;20.4;;;;;;;8.49;46.9707;962.313;;;;
2019/04/12 00:21:47;;;;;;;30.2;19.3;;;;;;;8.34;47.0127;962.2771;;;;
2019/04/12 00:24:12;;;;;;;27.4;19.1;;;;;;;8.21;47.37402;962.2838;;;;
2019/04/12 00:26:37;;;;;;;27.9;19.4;;;;;;;8.49;46.59863;962.291;;;;
2019/04/12 00:29:02;;;;;;;26.4;18.6;;;;;;;8.44;46.91992;962.3244;;;;
2019/04/12 00:31:28;;;;;;;25.7;18.5;;;;;;;8.64;46.08887;962.3437;;;;
2019/04/12 00:33:53;;;;;;;23.9;17.6;;;;;;;8.63;45.94922;962.3578;;;;
2019/04/12 00:36:18;;;;;;;25.7;17.6;;;;;;;8.23;46.5127;962.2759;;;;
2019/04/12 00:38:43;;;;;;;22.5;17;;;;;;;8.1;47.20801;962.3244;;;;
2019/04/12 00:41:08;;;;;;;21.8;16;;;;;;;8.36;46.05957;962.3031;;;;
2019/04/12 00:43:33;;;;;;;21.4;16.2;;;;;;;8.07;46.78516;962.3514;;;;
2019/04/12 00:45:58;;;;;;;23.3;16.1;;;;;;;8.5;45.95703;962.3546;;;;
2019/04/12 00:48:23;;;;;;;21.2;15.9;;;;;;;7.91;46.37305;962.3244;;;;
2019/04/12 00:50:49;;;;;;;22.5;15.2;;;;;;;8.27;45.86426;962.2751;;;;
2019/04/12 00:53:14;;;;;;;22.8;15.7;;;;;;;7.91;46.9082;962.3036;;;;
2019/04/12 00:55:39;;;;;;;21;15.2;;;;;;;7.46;47.52344;962.2855;;;;
2019/04/12 00:58:04;;;;;;;19.9;14.5;;;;;;;8.02;46.72266;962.2941;;;;
2019/04/12 01:00:34;;;;;;;22.8;14.7;;;;;;;7.89;47.0459;962.2427;;;;
2019/04/12 01:03:00;;;;;;;19.6;13.9;;;;;;;7.7;47.25684;962.2515;;;;
2019/04/12 01:05:24;;;;;;;20.1;14;;;;;;;7.46;47.38281;962.3036;;;;
2019/04/12 01:07:59;;;;;;;18.1;13.5;;;;;;;7.38;47.29199;962.2472;;;;
2019/04/12 01:10:12;;;;;;;17.9;13.9;;;;;;;7.54;47.55469;962.2383;;;;
2019/04/12 01:12:37;;;;;;;22.1;13.9;;;;;;;7.43;47.60059;962.2128;;;;
2019/04/12 01:15:02;;;;;;;18.6;13.9;;;;;;;7.75;46.82129;962.2866;;;;
2019/04/12 01:17:27;;;;;;;19.4;14.3;;;;;;;7.67;47.20801;962.317;;;;
2019/04/12 01:19:52;;;;;;;19.9;13.9;;;;;;;7.61;47.31836;962.3309;;;;
2019/04/12 01:22:18;;;;;;;18.1;13.6;;;;;;;7.8;46.89648;962.3351;;;;
2019/04/12 01:24:43;;;;;;;17.8;13.2;;;;;;;7.63;47.29688;962.375;;;;
2019/04/12 01:27:08;;;;;;;20.4;13.6;;;;;;;7.74;46.99512;962.3345;;;;
2019/04/12 01:29:33;;;;;;;19;13.1;;;;;;;7.61;47.39941;962.3219;;;;
2019/04/12 01:31:58;;;;;;;18.8;13.1;;;;;;;7.6;47.23633;962.323;;;;
2019/04/12 01:34:23;;;;;;;19.4;13.1;;;;;;;7.45;47.46387;962.3385;;;;
2019/04/12 01:36:48;;;;;;;19.1;12.8;;;;;;;7.57;47.41797;962.3759;;;;
2019/04/12 01:39:14;;;;;;;18.4;13;;;;;;;7.42;47.56445;962.3356;;;;
2019/04/12 01:41:39;;;;;;;19.3;12.5;;;;;;;7.04;48.33594;962.3276;;;;
2019/04/12 01:44:04;;;;;;;18;12.1;;;;;;;7.39;47.52637;962.2927;;;;
2019/04/12 01:46:29;;;;;;;17.5;12;;;;;;;7.41;47.78613;962.3536;;;;
2019/04/12 01:48:54;;;;;;;18.9;12.5;;;;;;;7.11;48.25098;962.3983;;;;
2019/04/12 01:51:19;;;;;;;16.3;12.3;;;;;;;6.64;49.5;962.3516;;;;
2019/04/12 01:53:44;;;;;;;15.4;12.5;;;;;;;6.61;49.53027;962.3562;;;;
2019/04/12 01:56:09;;;;;;;17.5;12;;;;;;;6.42;50.28613;962.4133;;;;
2019/04/12 01:58:35;;;;;;;17.2;12.4;;;;;;;6.9;49.27344;962.3365;;;;
2019/04/12 02:01:00;;;;;;;16.7;12.4;;;;;;;6.75;49.39648;962.3167;;;;
2019/04/12 02:03:25;;;;;;;14.7;11.1;;;;;;;7.05;48.39453;962.3006;;;;
2019/04/12 02:05:50;;;;;;;16.5;11.4;;;;;;;6.7;49.16895;962.2784;;;;
2019/04/12 02:08:15;;;;;;;17.6;12.4;;;;;;;6.83;48.70801;962.2828;;;;
2019/04/12 02:10:40;;;;;;;15.2;12;;;;;;;6.16;50.60352;962.3061;;;;
2019/04/12 02:13:05;;;;;;;15.8;11.4;;;;;;;6.57;49.4209;962.295;;;;
2019/04/12 02:15:31;;;;;;;16.7;11;;;;;;;6.4;50.12109;962.3678;;;;
2019/04/12 02:17:56;;;;;;;16.7;11.5;;;;;;;6.52;49.32227;962.315;;;;
2019/04/12 02:20:21;;;;;;;16.8;11.7;;;;;;;6.35;49.96387;962.3035;;;;
2019/04/12 02:22:46;;;;;;;16.4;11.4;;;;;;;6.73;49.28906;962.3292;;;;
2019/04/12 02:25:11;;;;;;;19.9;11.1;;;;;;;6.97;48.52637;962.3088;;;;
2019/04/12 02:27:36;;;;;;;16.1;10.9;;;;;;;6.54;49.5918;962.2894;;;;
2019/04/12 02:30:01;;;;;;;14.5;11;;;;;;;6.67;49.14258;962.2653;;;;
2019/04/12 02:34:18;;;;;;;15.3;10.6;;;;;;;6.53;49.02344;962.2996;;;;
2019/04/12 02:34:52;;;;;;;15;11;;;;;;;6.58;49.49121;962.2626;;;;
2019/04/12 02:37:17;;;;;;;16.7;10.7;;;;;;;6.28;50.03809;962.2872;;;;
2019/04/12 02:39:42;;;;;;;14.9;10.4;;;;;;;6.54;49.47559;962.2208;;;;
2019/04/12 02:42:07;;;;;;;15;10.8;;;;;;;6.47;49.50293;962.2885;;;;
2019/04/12 02:44:32;;;;;;;16.3;10.9;;;;;;;6.66;49.04785;962.2675;;;;
2019/04/12 02:47:06;;;;;;;15.7;11;;;;;;;6.44;49.37109;962.3062;;;;
2019/04/12 02:49:29;;;;;;;14;10.7;;;;;;;5.98;50.71094;962.2828;;;;
2019/04/12 02:52:01;;;;;;;14;10.4;;;;;;;6.45;49.69824;962.287;;;;
2019/04/12 02:54:51;;;;;;;15.5;10.9;;;;;;;5.96;50.5918;962.2696;;;;
2019/04/12 02:56:43;;;;;;;16.7;11.3;;;;;;;5.96;50.93945;962.2736;;;;
2019/04/12 02:59:05;;;;;;;16;10.6;;;;;;;6.32;49.85645;962.36;;;;
2019/04/12 03:01:28;;;;;;;14.9;11;;;;;;;6.45;49.39648;962.2961;;;;
2019/04/12 03:03:53;;;;;;;15.4;10.9;;;;;;;6.18;49.73633;962.3128;;;;
2019/04/12 03:06:18;;;;;;;14.5;10.6;;;;;;;6.31;49.79785;962.3044;;;;
2019/04/12 03:08:43;;;;;;;16.2;10.9;;;;;;;6.45;49.22168;962.3129;;;;
2019/04/12 03:11:08;;;;;;;16.3;10.5;;;;;;;6.43;49.25488;962.2853;;;;
2019/04/12 03:13:33;;;;;;;17.6;11.7;;;;;;;6.42;49.48633;962.3214;;;;
2019/04/12 03:15:58;;;;;;;14.7;10.2;;;;;;;6.34;49.2666;962.2791;;;;
2019/04/12 03:18:24;;;;;;;18.3;10.6;;;;;;;6.26;49.11914;962.3078;;;;
2019/04/12 03:20:49;;;;;;;16.5;11.1;;;;;;;6.29;49.49414;962.2266;;;;
2019/04/12 03:23:14;;;;;;;14.7;11;;;;;;;5.91;50.46973;962.2429;;;;
2019/04/12 03:25:39;;;;;;;16;11.1;;;;;;;6.08;50.30371;962.3025;;;;
2019/04/12 03:28:04;;;;;;;15.9;11.1;;;;;;;6.42;49.20605;962.3098;;;;
2019/04/12 03:30:29;;;;;;;15.6;10.9;;;;;;;6.53;49.02246;962.3049;;;;
2019/04/12 03:32:54;;;;;;;14.7;10.7;;;;;;;6.59;49.00488;962.2486;;;;
2019/04/12 03:35:19;;;;;;;16;11;;;;;;;6.39;49.35547;962.2745;;;;
2019/04/12 03:37:44;;;;;;;15.2;11;;;;;;;6.44;49.05762;962.2117;;;;
2019/04/12 03:40:09;;;;;;;17.4;11;;;;;;;5.99;50.32813;962.3114;;;;
2019/04/12 03:42:35;;;;;;;15.2;10.6;;;;;;;6.1;50.16797;962.3297;;;;
2019/04/12 03:45:00;;;;;;;14.1;10.8;;;;;;;6.14;49.92773;962.3019;;;;
2019/04/12 03:47:25;;;;;;;16.4;10.8;;;;;;;6.42;49.39355;962.3084;;;;
2019/04/12 03:49:50;;;;;;;17.8;10.7;;;;;;;5.92;50.33203;962.3092;;;;
2019/04/12 03:52:15;;;;;;;14.3;10.7;;;;;;;6.22;49.64844;962.3098;;;;
2019/04/12 03:54:40;;;;;;;15.8;10.8;;;;;;;6.35;49.38379;962.3333;;;;
2019/04/12 03:57:05;;;;;;;15.5;11;;;;;;;6.46;49.01367;962.2935;;;;
2019/04/12 03:59:30;;;;;;;16.4;11.1;;;;;;;6.39;48.99414;962.2925;;;;
2019/04/12 04:02:29;;;;;;;15.4;10.7;;;;;;;6.28;49.48047;962.34;;;;
2019/04/12 04:04:53;;;;;;;15.4;10.9;;;;;;;6.4;49.22754;962.2644;;;;
2019/04/12 04:07:18;;;;;;;15.8;11.1;;;;;;;6.05;49.79004;962.2761;;;;
2019/04/12 04:09:43;;;;;;;15;10.9;;;;;;;6.15;49.95313;962.257;;;;
2019/04/12 04:12:08;;;;;;;14.9;10;;;;;;;6.19;49.74902;962.2809;;;;
2019/04/12 04:14:33;;;;;;;14.9;10.9;;;;;;;5.88;50.53613;962.2477;;;;
2019/04/12 04:17:16;;;;;;;15.7;11.6;;;;;;;5.98;50.66406;962.3474;;;;
2019/04/12 04:19:29;;;;;;;15;10.9;;;;;;;5.46;51.58789;962.3026;;;;
2019/04/12 04:21:53;;;;;;;15.4;11.1;;;;;;;5.66;51.25195;962.2892;;;;
2019/04/12 04:24:21;;;;;;;14.8;10.5;;;;;;;5.81;51.02734;962.3304;;;;
2019/04/12 04:29:17;;;;;;;16.1;10.4;;;;;;;5.54;51.73633;962.3415;;;;
2019/04/12 04:31:38;;;;;;;15;11.1;;;;;;;5.8;51.1875;962.3147;;;;
2019/04/12 04:33:56;;;;;;;16.2;10.2;;;;;;;5.86;51.10156;962.2886;;;;
2019/04/12 04:36:21;;;;;;;15.3;10.4;;;;;;;5.67;51.40332;962.2698;;;;
2019/04/12 04:38:46;;;;;;;13.9;10.8;;;;;;;5.57;51.58887;962.2852;;;;
2019/04/12 04:41:12;;;;;;;13.5;10.5;;;;;;;5.97;50.56836;962.3109;;;;
2019/04/12 04:43:37;;;;;;;15.1;10.1;;;;;;;5.87;50.99902;962.3431;;;;
2019/04/12 04:46:02;;;;;;;14.4;10.2;;;;;;;6.16;50.37109;962.3719;;;;
2019/04/12 04:48:27;;;;;;;15.2;10.8;;;;;;;6.18;50.25781;962.3853;;;;
2019/04/12 04:50:52;;;;;;;15.9;10.7;;;;;;;6.09;50.5957;962.4241;;;;
2019/04/12 04:53:17;;;;;;;16.2;11.4;;;;;;;6;50.66602;962.4564;;;;
2019/04/12 04:55:43;;;;;;;17;11.1;;;;;;;5.87;51.0791;962.3869;;;;
2019/04/12 04:58:08;;;;;;;13.2;10.5;;;;;;;6.15;50.6377;962.4767;;;;
2019/04/12 05:00:33;;;;;;;15.8;10.7;;;;;;;6.17;50.34961;962.5208;;;;
2019/04/12 05:02:58;;;;;;;16.3;11;;;;;;;5.56;52.00391;962.4642;;;;
2019/04/12 05:05:23;;;;;;;17.6;10.9;;;;;;;5.83;51.90918;962.4609;;;;
2019/04/12 05:07:48;;;;;;;14.4;10.6;;;;;;;5.98;51.35938;962.5333;;;;
2019/04/12 05:10:13;;;;;;;15.7;11;;;;;;;6.22;50.56348;962.5435;;;;
2019/04/12 05:12:39;;;;;;;14.5;11;;;;;;;6.1;50.59668;962.5831;;;;
2019/04/12 05:15:04;;;;;;;15.2;11.1;;;;;;;6.19;50.53613;962.5742;;;;
2019/04/12 05:17:29;;;;;;;15.3;10.9;;;;;;;6.24;50.42676;962.5617;;;;
2019/04/12 05:19:54;;;;;;;16.4;11.2;;;;;;;6.26;50.2334;962.5662;;;;
2019/04/12 05:22:19;;;;;;;14.9;10.4;;;;;;;6.02;51.09766;962.5779;;;;
2019/04/12 05:24:44;;;;;;;15;11;;;;;;;5.98;51.23242;962.5452;;;;
2019/04/12 05:27:09;;;;;;;14.3;11;;;;;;;6.2;50.84082;962.5975;;;;
2019/04/12 05:29:35;;;;;;;14.5;11.1;;;;;;;6.36;50.43066;962.6502;;;;
2019/04/12 05:32:00;;;;;;;15.2;11.2;;;;;;;6.44;50.34668;962.6372;;;;
2019/04/12 05:34:25;;;;;;;18.7;11.6;;;;;;;6.04;51.22852;962.635;;;;
2019/04/12 05:36:50;;;;;;;16.1;11.1;;;;;;;5.76;52.19141;962.6007;;;;
2019/04/12 05:39:16;;;;;;;14.4;10.9;;;;;;;6.09;51.36133;962.6876;;;;
2019/04/12 05:41:41;;;;;;;18.4;10.8;;;;;;;6.29;50.78223;962.666;;;;
2019/04/12 05:44:07;;;;;;;17.7;11.1;;;;;;;5.91;52.09375;962.5647;;;;
2019/04/12 05:46:54;;;;;;;14.8;10.9;;;;;;;6.37;50.9873;962.6451;;;;
2019/04/12 05:49:02;;;;;;;16.1;11.8;;;;;;;6.53;51.08887;962.7058;;;;
2019/04/12 05:51:22;;;;;;;16;11.2;;;;;;;6.36;52.21777;962.6154;;;;
2019/04/12 05:53:47;;;;;;;18.7;11.5;;;;;;;6.55;50.69629;962.6554;;;;
2019/04/12 05:56:13;;;;;;;17.4;11.6;;;;;;;6.38;50.76855;962.6609;;;;
2019/04/12 05:58:59;;;;;;;16.7;11.8;;;;;;;6.5;50.50391;962.6715;;;;
2019/04/12 06:03:27;;;;;;;16.2;11.3;;;;;;;6.22;51.33105;962.616;;;;
2019/04/12 06:05:53;;;;;;;18.3;12;;;;;;;6.26;51.76563;962.7213;;;;
2019/04/12 06:08:18;;;;;;;17.4;11.9;;;;;;;6.25;51.27539;962.6629;;;;
2019/04/12 06:10:43;;;;;;;16.1;11.9;;;;;;;6.19;51.87305;962.6891;;;;
2019/04/12 06:13:08;;;;;;;16.6;11.5;;;;;;;6.39;51.54785;962.6842;;;;
2019/04/12 06:15:34;;;;;;;16.6;12.2;;;;;;;6.56;51.40527;962.6672;;;;
2019/04/12 06:17:59;;;;;;;16.6;12;;;;;;;6.61;51.45801;962.6884;;;;
2019/04/12 06:20:34;;;;;;;19.9;12.4;;;;;;;6.52;51.94727;962.6849;;;;
2019/04/12 06:22:49;;;;;;;20;12.8;;;;;;;6.61;51.30664;962.7714;;;;
2019/04/12 06:25:18;;;;;;;17.6;12.6;;;;;;;6.56;51.49805;962.7745;;;;
2019/04/12 06:27:45;;;;;;;17.4;12.8;;;;;;;6.44;51.98242;962.7458;;;;
2019/04/12 06:30:04;;;;;;;15.9;12.8;;;;;;;6.64;51.59082;962.7784;;;;
2019/04/12 06:32:29;;;;;;;18.9;13.2;;;;;;;6.63;52.0752;962.7637;;;;
2019/04/12 06:34:54;;;;;;;18.9;12.6;;;;;;;6.8;51.2373;962.7272;;;;
2019/04/12 06:37:19;;;;;;;22.9;12.9;;;;;;;6.84;50.98633;962.7263;;;;
2019/04/12 06:39:44;;;;;;;17.6;12.4;;;;;;;6.89;50.8291;962.6494;;;;
2019/04/12 06:42:09;;;;;;;17.4;12.7;;;;;;;6.72;52.05273;962.6925;;;;
2019/04/12 06:44:35;;;;;;;19.4;13.2;;;;;;;6.86;51.24512;962.6143;;;;
2019/04/12 06:47:00;;;;;;;20;13;;;;;;;6.92;51.36816;962.6951;;;;
2019/04/12 06:49:25;;;;;;;16.4;12.6;;;;;;;6.74;51.46191;962.7161;;;;
2019/04/12 06:51:50;;;;;;;17.9;12.9;;;;;;;6.65;51.70801;962.6904;;;;
2019/04/12 06:54:15;;;;;;;19.3;13.3;;;;;;;6.57;52.14941;962.6959;;;;
2019/04/12 06:56:48;;;;;;;17.6;13.4;;;;;;;6.55;52.54199;962.6722;;;;
2019/04/12 06:59:06;;;;;;;19.1;13.8;;;;;;;6.6;52.38574;962.7338;;;;
2019/04/12 07:01:36;;;;;;;18.9;14.1;;;;;;;6.55;52.1709;962.702;;;;
2019/04/12 07:06:21;;;;;;;18.2;13.8;;;;;;;6.44;52.15723;962.6682;;;;
2019/04/12 07:08:46;;;;;;;18.7;13.8;;;;;;;6.61;52.30566;962.7183;;;;
2019/04/12 07:11:11;;;;;;;18.1;13.5;;;;;;;6.45;52.41406;962.6322;;;;
2019/04/12 07:13:36;;;;;;;20.2;14.1;;;;;;;6.57;52.19629;962.5705;;;;
2019/04/12 07:16:01;;;;;;;19.7;14;;;;;;;6.61;51.8418;962.6848;;;;
2019/04/12 07:18:27;;;;;;;20.8;14.5;;;;;;;6.53;52.08789;962.663;;;;
2019/04/12 07:20:52;;;;;;;18.1;13.9;;;;;;;6.9;51.27246;962.6044;;;;
2019/04/12 07:23:17;;;;;;;18.7;14.1;;;;;;;6.67;51.57031;962.5886;;;;
2019/04/12 07:25:42;;;;;;;18.9;13.7;;;;;;;6.85;51.32422;962.6037;;;;
2019/04/12 07:28:07;;;;;;;19.1;14.4;;;;;;;6.7;51.81738;962.6186;;;;
2019/04/12 07:30:32;;;;;;;20.6;15;;;;;;;7.1;50.7041;962.5975;;;;
2019/04/12 07:32:57;;;;;;;18.5;14.4;;;;;;;6.96;51.1748;962.6025;;;;
2019/04/12 07:35:23;;;;;;;21;14.4;;;;;;;7.08;50.79395;962.6103;;;;
2019/04/12 07:37:48;;;;;;;22.9;14.8;;;;;;;7;50.62207;962.6133;;;;
2019/04/12 07:40:13;;;;;;;21.3;15.3;;;;;;;7;51.08594;962.5925;;;;
2019/04/12 07:42:38;;;;;;;23.2;15.5;;;;;;;6.75;51.47559;962.688;;;;
2019/04/12 07:45:03;;;;;;;23.7;15.8;;;;;;;6.85;51.50977;962.6166;;;;
2019/04/12 07:47:28;;;;;;;21.4;15.4;;;;;;;6.74;52.04199;962.6166;;;;
2019/04/12 07:49:56;;;;;;;23.1;15.6;;;;;;;6.8;51.87598;962.6417;;;;
2019/04/12 07:52:22;;;;;;;26.1;15.9;;;;;;;6.97;51.4668;962.675;;;;
2019/04/12 07:55:04;;;;;;;20.6;15.8;;;;;;;7.05;51.03418;962.6708;;;;
2019/04/12 07:57:18;;;;;;;23.5;16.3;;;;;;;7.19;50.58594;962.6309;;;;
2019/04/12 07:59:34;;;;;;;25.3;16.2;;;;;;;7.3;50.08789;962.6348;;;;
2019/04/12 08:05:37;;;;;;;23.7;16.8;;;;;;;7.49;50.20215;962.7131;;;;
2019/04/12 08:08:01;;;;;;;21.9;16.3;;;;;;;7.71;49.7627;962.6336;;;;
2019/04/12 08:10:24;;;;;;;22.9;16.3;;;;;;;7.68;49.91113;962.5906;;;;
2019/04/12 08:12:49;;;;;;;22.5;16.2;;;;;;;7.54;49.99902;962.6917;;;;
2019/04/12 08:15:14;;;;;;;20.5;16.4;;;;;;;7.61;49.78613;962.5978;;;;
2019/04/12 08:17:39;;;;;;;26;16.5;;;;;;;7.79;49.45703;962.6163;;;;
2019/04/12 08:20:05;;;;;;;21.8;17;;;;;;;7.78;49.92188;962.6149;;;;
2019/04/12 08:22:30;;;;;;;22.8;16.9;;;;;;;7.81;49.62207;962.6088;;;;
2019/04/12 08:24:55;;;;;;;22.4;16.6;;;;;;;7.93;49.28711;962.6202;;;;
2019/04/12 08:27:20;;;;;;;22.6;16.9;;;;;;;7.93;48.83301;962.6163;;;;
2019/04/12 08:29:45;;;;;;;24.5;17.5;;;;;;;8.08;48.46484;962.6174;;;;
2019/04/12 08:32:11;;;;;;;23.8;17.3;;;;;;;8.12;48.42383;962.5837;;;;
2019/04/12 08:34:36;;;;;;;25.7;16.9;;;;;;;8.05;48.43848;962.5911;;;;
2019/04/12 08:37:01;;;;;;;22.6;17.3;;;;;;;8.73;47.56836;962.6838;;;;
2019/04/12 08:39:26;;;;;;;23.7;17.5;;;;;;;8.81;46.86621;962.5922;;;;
2019/04/12 08:41:51;;;;;;;26;17.9;;;;;;;9.04;46.41211;962.627;;;;
2019/04/12 08:44:18;;;;;;;29.7;19;;;;;;;9.33;46.25684;962.6083;;;;
2019/04/12 08:46:43;;;;;;;25.4;17.9;;;;;;;8.87;46.5;962.5991;;;;
2019/04/12 08:49:08;;;;;;;22.6;18.2;;;;;;;9.32;46.08105;962.5461;;;;
2019/04/12 08:51:34;;;;;;;23.3;18.2;;;;;;;9.4;45.50488;962.5527;;;;
2019/04/12 08:53:59;;;;;;;23.2;18.5;;;;;;;9.82;45.16211;962.4612;;;;
2019/04/12 08:56:24;;;;;;;22.7;17.6;;;;;;;10.11;44.29297;962.4925;;;;
2019/04/12 08:58:49;;;;;;;24.9;18.7;;;;;;;10.1;43.55371;962.4508;;;;
2019/04/12 09:01:14;;;;;;;24.5;18;;;;;;;10.32;43.35254;962.5302;;;;
2019/04/12 09:03:39;;;;;;;27.5;18.5;;;;;;;10.29;43.68945;962.4886;;;;
2019/04/12 09:06:04;;;;;;;26.1;18.1;;;;;;;10.52;43.25586;962.4961;;;;
2019/04/12 09:08:34;;;;;;;24.4;18.1;;;;;;;10.76;42.42285;962.4422;;;;
2019/04/12 09:10:54;;;;;;;22.9;18.3;;;;;;;10.9;41.78125;962.4169;;;;
2019/04/12 09:13:19;;;;;;;23.8;18.7;;;;;;;10.56;42.79102;962.4465;;;;
2019/04/12 09:15:44;;;;;;;26;18.6;;;;;;;10.61;42.19824;962.5286;;;;
2019/04/12 09:18:10;;;;;;;26.7;18.6;;;;;;;11.03;42.14453;962.4072;;;;
2019/04/12 09:20:57;;;;;;;24;18.3;;;;;;;11.2;41.85645;962.3857;;;;
2019/04/12 09:23:08;;;;;;;24.4;18.3;;;;;;;10.81;42.20605;962.4016;;;;
2019/04/12 09:25:40;;;;;;;26.4;18.7;;;;;;;10.36;42.67676;962.4026;;;;
2019/04/12 09:27:50;;;;;;;23.6;17.7;;;;;;;10.58;42.61719;962.4634;;;;
2019/04/12 09:30:15;;;;;;;26.6;19.5;;;;;;;10.61;42.58496;962.4244;;;;
2019/04/12 09:32:40;;;;;;;24.1;20;;;;;;;10.28;43.31348;962.4171;;;;
2019/04/12 09:35:05;;;;;;;27.2;19.5;;;;;;;10.76;42.93945;962.3198;;;;
2019/04/12 09:37:31;;;;;;;25.4;20.2;;;;;;;10.98;42.17578;962.4375;;;;
2019/04/12 09:39:56;;;;;;;26.8;20.5;;;;;;;11.44;41.97363;962.3572;;;;
2019/04/12 09:42:22;;;;;;;26.9;19.2;;;;;;;11.3;41.9248;962.303;;;;
2019/04/12 09:44:47;;;;;;;25.5;18.4;;;;;;;11.06;42.32422;962.3017;;;;
2019/04/12 09:47:12;;;;;;;25.9;18.4;;;;;;;11;42.30664;962.3044;;;;
2019/04/12 09:49:37;;;;;;;22.8;18.7;;;;;;;11.04;42.5918;962.3186;;;;
2019/04/12 09:52:02;;;;;;;22.1;18.3;;;;;;;11.32;42.67871;962.2822;;;;
2019/04/12 09:54:27;;;;;;;26.7;19.9;;;;;;;11.09;43.44141;962.3745;;;;
2019/04/12 09:57:08;;;;;;;29.2;20.4;;;;;;;10.88;42.95117;962.2684;;;;
2019/04/12 09:59:33;;;;;;;28;20.8;;;;;;;11.31;41.56152;962.3356;;;;
2019/04/12 10:01:59;;;;;;;26.1;20.5;;;;;;;11.24;41.49609;962.2969;;;;
2019/04/12 10:04:24;;;;;;;25.5;20.1;;;;;;;11.26;41.75684;962.3228;;;;
2019/04/12 10:06:49;;;;;;;25.5;19.9;;;;;;;11.83;40.89551;962.2556;;;;
2019/04/12 10:09:14;;;;;;;24.9;19.9;;;;;;;11.67;40.58594;962.1976;;;;
2019/04/12 10:11:39;;;;;;;25.4;19.7;;;;;;;11.85;40.86133;962.2399;;;;
2019/04/12 10:14:04;;;;;;;24.6;20.2;;;;;;;11.94;40.8457;962.2678;;;;
2019/04/12 10:16:29;;;;;;;29.3;20.5;;;;;;;11.75;41.0625;962.1974;;;;
2019/04/12 10:18:54;;;;;;;28.2;20.4;;;;;;;12.23;40.34375;962.2015;;;;
2019/04/12 10:21:19;;;;;;;27.7;20.7;;;;;;;12.25;39.60449;962.1412;;;;
2019/04/12 10:23:44;;;;;;;24;19.1;;;;;;;12.59;40.34277;962.241;;;;
2019/04/12 10:26:09;;;;;;;27.9;21.2;;;;;;;12.17;39.53906;962.1509;;;;
2019/04/12 10:28:35;;;;;;;28;21;;;;;;;12.18;39.53906;962.1406;;;;
2019/04/12 10:31:00;;;;;;;28.4;20.7;;;;;;;12.15;40.33691;962.1722;;;;
2019/04/12 10:33:25;;;;;;;29.1;20.1;;;;;;;12.35;39.28418;962.0634;;;;
2019/04/12 10:35:50;;;;;;;27.7;21.2;;;;;;;12.56;38.47949;962.0454;;;;
2019/04/12 10:38:15;;;;;;;26.6;20.2;;;;;;;12.56;39.67969;962.129;;;;
2019/04/12 10:40:40;;;;;;;25.3;20.1;;;;;;;12.28;40.20703;962.1278;;;;
2019/04/12 10:43:07;;;;;;;27.7;20.6;;;;;;;12.33;40.03418;962.019;;;;
2019/04/12 10:45:39;;;;;;;24.1;19.7;;;;;;;12.45;38.66992;962.044;;;;
2019/04/12 10:48:04;;;;;;;24.3;19.4;;;;;;;12.57;39.46875;961.9448;;;;
2019/04/12 10:55:17;;;;;;;25.9;19.7;;;;;;;13.5;38.37305;961.8639;;;;
2019/04/12 10:57:38;;;;;;;24.5;18.8;;;;;;;13.28;38.30664;961.8658;;;;
2019/04/12 11:00:04;;;;;;;26;18.8;;;;;;;13.23;38.43164;961.8272;;;;
2019/04/12 11:02:29;;;;;;;26.7;19.1;;;;;;;13.02;38.18945;961.9133;;;;
2019/04/12 11:04:53;;;;;;;25.6;20.3;;;;;;;12.76;38.59082;961.8787;;;;
2019/04/12 11:07:18;;;;;;;29.3;19.3;;;;;;;12.65;38.65137;961.868;;;;
2019/04/12 11:09:43;;;;;;;23.3;19.3;;;;;;;12.4;39.08887;961.8969;;;;
2019/04/12 11:12:09;;;;;;;25.8;19.6;;;;;;;12.63;39.01367;961.8553;;;;
2019/04/12 11:14:34;;;;;;;24.9;19.6;;;;;;;12.26;39.72363;961.7653;;;;
2019/04/12 11:16:59;;;;;;;24.9;18.9;;;;;;;11.95;40.37793;961.8386;;;;
2019/04/12 11:19:24;;;;;;;27;20;;;;;;;11.89;40.61719;961.7988;;;;
2019/04/12 11:21:49;;;;;;;25.9;20.3;;;;;;;12.17;40.05566;961.8914;;;;
2019/04/12 11:24:14;;;;;;;28;20.9;;;;;;;12.2;40.57617;961.873;;;;
2019/04/12 11:26:39;;;;;;;25.7;20.4;;;;;;;12.05;40.86914;961.8506;;;;
2019/04/12 11:29:04;;;;;;;26.3;20.6;;;;;;;12.08;40.35352;961.8245;;;;
2019/04/12 11:31:29;;;;;;;28.8;21.1;;;;;;;11.44;41.73828;961.8397;;;;
2019/04/12 11:34:09;;;;;;;24.3;21;;;;;;;11.55;41.03223;961.8155;;;;
2019/04/12 11:36:35;;;;;;;26;20.3;;;;;;;11.72;40.68359;961.8808;;;;
2019/04/12 11:39:01;;;;;;;25.8;20.6;;;;;;;11.7;41.12988;961.8795;;;;
2019/04/12 11:41:26;;;;;;;28.1;20.9;;;;;;;11.5;41.87305;961.8678;;;;
2019/04/12 11:43:51;;;;;;;24.7;20.2;;;;;;;11.59;41.10742;961.8331;;;;
2019/04/12 11:46:16;;;;;;;28;19.9;;;;;;;11.65;40.88965;961.9059;;;;
2019/04/12 11:48:41;;;;;;;28.6;20.9;;;;;;;11.46;41.6582;961.8577;;;;
2019/04/12 11:51:06;;;;;;;28.3;21.2;;;;;;;11.62;41.89746;961.7849;;;;
2019/04/12 11:53:31;;;;;;;28.4;21.2;;;;;;;11.44;41.16309;961.8306;;;;
2019/04/12 11:55:56;;;;;;;26.7;21.1;;;;;;;11.53;40.57324;961.8441;;;;
2019/04/12 11:58:22;;;;;;;26.1;20.9;;;;;;;11.48;40.74414;961.889;;;;
2019/04/12 12:01:33;;;;;;;29.2;20.8;;;;;;;11.42;41.69043;961.8945;;;;
2019/04/12 12:03:17;;;;;;;26.7;21.1;;;;;;;11.46;41.62402;961.9046;;;;
2019/04/12 12:06:58;;;;;;;28.2;21.4;;;;;;;11.71;41.35352;961.9774;;;;
2019/04/12 12:10:48;;;;;;;28;21.6;;;;;;;11.37;41.58984;961.9744;;;;
2019/04/12 12:13:00;;;;;;;27.9;21.4;;;;;;;11.17;42.01758;962.0837;;;;
2019/04/12 12:15:56;;;;;;;29.7;22.4;;;;;;;11.06;41.72559;962.0413;;;;
2019/04/12 12:17:43;;;;;;;30.9;22.6;;;;;;;11.32;41.41016;962.0516;;;;
2019/04/12 12:20:08;;;;;;;30.9;23;;;;;;;11.35;41.16699;962.0812;;;;
2019/04/12 12:22:49;;;;;;;28.1;21.8;;;;;;;11.32;41.62207;962.0125;;;;
2019/04/12 12:25:14;;;;;;;42;30.4;;;;;;;11.33;41.96289;962.0109;;;;
2019/04/12 12:27:40;;;;;;;33.2;24.6;;;;;;;11.33;41.16406;962.05;;;;
2019/04/12 12:30:05;;;;;;;27;22.4;;;;;;;11.57;41.46973;962.029;;;;
2019/04/12 12:32:30;;;;;;;28.7;22.6;;;;;;;11.29;42.04102;962.0491;;;;
2019/04/12 12:34:55;;;;;;;28.9;22.6;;;;;;;11.47;41.8584;962.0037;;;;
2019/04/12 12:37:20;;;;;;;28.6;21.6;;;;;;;11.24;41.28516;962.0181;;;;
2019/04/12 12:39:45;;;;;;;27.9;22.1;;;;;;;11.48;40.96777;961.9877;;;;
2019/04/12 12:42:10;;;;;;;28.1;22.3;;;;;;;11.32;41.42188;962.0164;;;;
2019/04/12 12:44:35;;;;;;;27.1;22;;;;;;;11.41;41.59473;961.9361;;;;
2019/04/12 12:47:01;;;;;;;27.6;22.5;;;;;;;11.46;40.61328;961.9659;;;;
2019/04/12 12:49:26;;;;;;;35;23.1;;;;;;;11.88;41.22852;962.0048;;;;
2019/04/12 12:51:51;;;;;;;27.5;22.1;;;;;;;11.78;40.57227;961.9705;;;;
2019/04/12 12:54:16;;;;;;;26.7;21.8;;;;;;;11.56;39.98828;962.0303;;;;
2019/04/12 12:56:41;;;;;;;30.8;22.1;;;;;;;11.45;41.1748;961.9815;;;;
2019/04/12 12:59:06;;;;;;;30.2;22.9;;;;;;;11.37;41.08496;961.9744;;;;
2019/04/12 13:01:31;;;;;;;29.8;22.1;;;;;;;11.46;40.88379;962.0181;;;;
2019/04/12 13:03:56;;;;;;;29.3;22.9;;;;;;;11.64;39.93652;961.9216;;;;
2019/04/12 13:06:22;;;;;;;28.4;22.6;;;;;;;11.59;40.13184;961.9651;;;;
2019/04/12 13:08:47;;;;;;;29;22.7;;;;;;;11.79;39.84473;962.055;;;;
2019/04/12 13:11:12;;;;;;;28.5;22.6;;;;;;;11.6;40.13379;961.9752;;;;
2019/04/12 13:13:37;;;;;;;29.2;22.8;;;;;;;11.7;39.96484;961.9408;;;;
2019/04/12 13:16:02;;;;;;;28.4;21.8;;;;;;;11.83;39.27246;961.9556;;;;
2019/04/12 13:18:27;;;;;;;29.9;22.6;;;;;;;11.55;39.79883;961.981;;;;
2019/04/12 13:20:52;;;;;;;28.6;22.3;;;;;;;11.68;39.82324;961.9174;;;;
2019/04/12 13:23:17;;;;;;;28.1;22.2;;;;;;;11.77;39.6543;961.9419;;;;
2019/04/12 13:25:43;;;;;;;27.4;21.8;;;;;;;12.04;39.44531;961.9749;;;;
2019/04/12 13:28:08;;;;;;;32;22.5;;;;;;;12.23;39.15625;961.9705;;;;
2019/04/12 13:40:08;;;;;;;27.5;23.4;;;;;;;11.88;39.85254;961.8992;;;;
2019/04/12 13:42:26;;;;;;;27.8;22.6;;;;;;;11.55;39.96289;961.8806;;;;
2019/04/12 13:44:37;;;;;;;27.4;22.6;;;;;;;11.45;39.83691;961.8981;;;;
2019/04/12 13:47:03;;;;;;;30.4;22.7;;;;;;;11.77;39.39551;961.9158;;;;
2019/04/12 13:49:28;;;;;;;28.7;22.8;;;;;;;11.68;38.8125;961.9565;;;;
2019/04/12 13:51:53;;;;;;;26.6;22.9;;;;;;;11.59;39.63867;961.8817;;;;
2019/04/12 13:54:18;;;;;;;29.9;23;;;;;;;11.64;39.36133;961.8903;;;;
2019/04/12 13:56:44;;;;;;;30.2;23.2;;;;;;;11.39;39.72559;961.8699;;;;
2019/04/12 13:59:09;;;;;;;30.2;23.7;;;;;;;11.42;39.88086;961.8826;;;;
2019/04/12 14:01:34;;;;;;;32;23.8;;;;;;;11.48;39.44043;961.8795;;;;
2019/04/12 14:03:59;;;;;;;26.4;22.7;;;;;;;11.75;39.19434;961.8231;;;;
2019/04/12 14:06:24;;;;;;;33.4;24;;;;;;;11.72;38.44043;961.8756;;;;
2019/04/12 14:08:50;;;;;;;27.5;23.5;;;;;;;11.63;39.14844;961.8019;;;;
2019/04/12 14:11:15;;;;;;;29.2;23.3;;;;;;;11.36;38.73633;961.8102;;;;
2019/04/12 14:13:40;;;;;;;29.2;23.9;;;;;;;11.4;39.10352;961.7774;;;;
2019/04/12 14:16:05;;;;;;;30.6;23.1;;;;;;;11.34;39.27441;961.8272;;;;
2019/04/12 14:18:30;;;;;;;28.2;22.3;;;;;;;11.49;39.55859;961.8613;;;;
2019/04/12 14:20:55;;;;;;;30.4;22.7;;;;;;;11.46;38.60547;961.7743;;;;
2019/04/12 14:23:20;;;;;;;29;23.2;;;;;;;11.31;38.61523;961.8183;;;;
2019/04/12 17:04:14;;;;;;;28.3;19.3;;;;;;;10.88;38.4707;962.2609;;;;